Ogden-Hinckley Information

FAA: OGD - ICAO: KOGD

Ogden-Hinckley (Airport) Location

State Utah
County Weber
City Ogden
Ogden-Hinckley (Airport) is 3 miles southwest of Ogden, UT.
Latitude 41-11-42.2533N
Longitude 112-00-43.9010W
Elevation 4,472ft

Ogden-Hinckley METARs

METAR KOGD 262153Z 00000KT 10SM CLR 02/M06 A3024 RMK AO2 SLP257 T00221056
Altimeter 30.24"
Temperature 2.2°C (36.0°F)
Wind 0° at 0KT
Clouds Skies are clear.
Visibility 10.0mi
Time observed: 2022-01-26T21:53:00Z

Ogden-Hinckley (Airport) Details

Status Operational
Activation December 1941
Ownership Public
Usage Public
Chart SALT LAKE CITY
ATC on-site Yes
Beacon schedule sunset-sunrise
Beacon color clear green

Ogden-Hinckley (Airport) Contacts

Owner OGDEN CITY CORPORATION
Owner address 2549 WASHINGTON BLVD, OGDEN, UT 84401
Owner phone 801-629-8100
Manager GALIS, INC.
Manager address 1700 VLY BK PZA; 300 S 4TH ST, LAS VEGAS, NV 89101
Manager phone 702-383-8811

Ogden-Hinckley Radio Frequencies

Ogden-Hinckley (Airport) Radio Frequencies

UNICOM 122.95
Common traffic advisory frequency (CTAF) 118.7